createdAt,value
2017-05-25T00:00:08.112Z,0
2017-05-25T00:02:41.303Z,0
2017-05-25T00:03:21.735Z,0
2017-05-25T00:04:02.124Z,0
2017-05-25T00:04:42.552Z,0
2017-05-25T00:05:22.942Z,0
2017-05-25T00:06:03.365Z,0
2017-05-25T00:06:43.808Z,0
2017-05-25T00:07:24.213Z,0
2017-05-25T00:08:04.584Z,0
2017-05-25T00:08:45.052Z,0
2017-05-25T00:09:25.468Z,0
2017-05-25T00:10:05.869Z,0
2017-05-25T00:10:46.270Z,0
2017-05-25T00:11:26.690Z,0
2017-05-25T00:12:07.096Z,0
2017-05-25T00:12:47.536Z,0
2017-05-25T00:13:27.955Z,0
2017-05-25T00:14:08.342Z,0
2017-05-25T00:14:48.752Z,0
2017-05-25T00:15:29.825Z,0
2017-05-25T00:16:10.248Z,0
2017-05-25T00:16:50.625Z,0
2017-05-25T00:17:31.076Z,0
2017-05-25T00:18:11.502Z,0
2017-05-25T00:18:51.914Z,0
2017-05-25T00:19:32.347Z,0
2017-05-25T00:20:12.768Z,0
2017-05-25T00:20:53.203Z,0
2017-05-25T00:21:33.644Z,0
2017-05-25T00:23:51.537Z,0
2017-05-25T00:24:32.019Z,0
2017-05-25T00:25:12.452Z,0
2017-05-25T00:25:52.843Z,0
2017-05-25T00:26:33.277Z,0
2017-05-25T00:27:13.706Z,0
2017-05-25T00:27:54.159Z,0
2017-05-25T00:28:34.523Z,0
2017-05-25T00:29:14.982Z,0
2017-05-25T00:29:55.366Z,0
2017-05-25T00:30:35.768Z,0
2017-05-25T00:31:16.206Z,0
2017-05-25T00:31:56.557Z,0
2017-05-25T00:34:24.722Z,0
2017-05-25T00:35:05.708Z,0
2017-05-25T00:37:39.736Z,0
2017-05-25T00:38:20.159Z,0
2017-05-25T00:39:00.560Z,0
2017-05-25T00:39:40.975Z,0
2017-05-25T00:40:21.385Z,0
2017-05-25T00:41:01.804Z,0
2017-05-25T00:41:42.199Z,0
2017-05-25T00:42:22.687Z,0
2017-05-25T00:43:03.065Z,0
2017-05-25T00:43:43.500Z,0
2017-05-25T00:44:27.446Z,0
2017-05-25T00:45:09.510Z,0
2017-05-25T00:45:51.544Z,0
2017-05-25T00:46:31.992Z,0
2017-05-25T00:47:12.369Z,0
2017-05-25T00:47:52.792Z,0
2017-05-25T00:48:33.227Z,0
2017-05-25T00:49:13.578Z,0
2017-05-25T00:51:31.670Z,0
2017-05-25T00:52:12.130Z,0
2017-05-25T00:52:53.388Z,0
2017-05-25T00:53:33.772Z,0
2017-05-25T00:54:15.004Z,0
2017-05-25T00:54:55.484Z,0
2017-05-25T00:55:37.847Z,0
2017-05-25T00:56:19.026Z,0
2017-05-25T00:56:59.427Z,0
2017-05-25T00:57:40.628Z,0
2017-05-25T00:58:22.052Z,0
2017-05-25T00:59:03.156Z,0
2017-05-25T00:59:43.566Z,0
2017-05-25T01:00:24.029Z,0
2017-05-25T01:01:04.420Z,0
2017-05-25T01:01:44.880Z,0
2017-05-25T01:02:25.320Z,0
2017-05-25T01:03:05.741Z,0
2017-05-25T01:03:46.198Z,0
2017-05-25T01:04:26.589Z,0
2017-05-25T01:05:07.065Z,0
2017-05-25T01:05:47.440Z,0
2017-05-25T01:08:05.454Z,0
2017-05-25T01:08:45.875Z,0
2017-05-25T01:09:26.272Z,0
2017-05-25T01:10:06.670Z,0
2017-05-25T01:12:19.494Z,0
2017-05-25T01:12:59.905Z,0
2017-05-25T01:13:40.295Z,0
2017-05-25T01:14:20.768Z,0
2017-05-25T01:15:01.174Z,0
2017-05-25T01:15:41.609Z,0
2017-05-25T01:16:21.987Z,0
2017-05-25T01:17:02.408Z,0
2017-05-25T01:17:42.831Z,0
2017-05-25T01:18:23.222Z,0
2017-05-25T01:19:03.659Z,0
2017-05-25T01:19:44.051Z,0
2017-05-25T01:20:24.489Z,0
2017-05-25T01:21:04.939Z,0
2017-05-25T01:21:45.347Z,0
2017-05-25T01:22:25.736Z,0
2017-05-25T01:25:03.808Z,0
2017-05-25T01:25:44.258Z,0
2017-05-25T01:26:24.695Z,0
2017-05-25T01:27:05.091Z,0
2017-05-25T01:27:45.503Z,0
2017-05-25T01:28:25.958Z,0
2017-05-25T01:29:07.129Z,0
2017-05-25T01:29:47.557Z,0
2017-05-25T01:30:27.952Z,0
2017-05-25T01:31:08.355Z,0
2017-05-25T01:31:48.805Z,0
2017-05-25T01:34:16.807Z,0
2017-05-25T01:34:57.225Z,0
2017-05-25T01:35:37.661Z,0
2017-05-25T01:36:18.064Z,0
2017-05-25T01:36:59.082Z,0
2017-05-25T01:37:39.521Z,0
2017-05-25T01:38:19.969Z,0
2017-05-25T01:39:00.404Z,0
2017-05-25T01:39:40.803Z,0
2017-05-25T01:40:21.211Z,0
2017-05-25T01:41:01.657Z,0
2017-05-25T01:41:42.067Z,0
2017-05-25T01:42:22.455Z,0
2017-05-25T01:43:02.914Z,0
2017-05-25T01:43:43.300Z,0
2017-05-25T01:44:23.765Z,0
2017-05-25T01:45:04.154Z,0
2017-05-25T01:45:45.194Z,0
2017-05-25T01:46:25.601Z,0
2017-05-25T01:47:05.997Z,0
2017-05-25T01:47:46.444Z,0
2017-05-25T01:48:26.853Z,0
2017-05-25T01:49:07.242Z,0
2017-05-25T01:49:47.642Z,0
2017-05-25T01:50:28.065Z,0
2017-05-25T01:53:06.346Z,0
2017-05-25T01:53:46.787Z,0
2017-05-25T01:54:27.198Z,0
2017-05-25T01:55:07.633Z,0
2017-05-25T01:55:48.020Z,0
2017-05-25T01:56:28.449Z,0
2017-05-25T01:58:56.574Z,0
2017-05-25T01:59:37.006Z,0
2017-05-25T02:00:17.450Z,0
2017-05-25T02:00:57.850Z,0
2017-05-25T02:01:38.286Z,0
2017-05-25T02:02:18.740Z,0
2017-05-25T02:02:59.138Z,0
2017-05-25T02:03:39.564Z,0
2017-05-25T02:04:19.985Z,0
2017-05-25T02:05:00.399Z,0
2017-05-25T02:05:40.821Z,0
2017-05-25T02:06:21.195Z,0
2017-05-25T02:07:01.597Z,0
2017-05-25T02:07:42.067Z,0
2017-05-25T02:08:22.463Z,0
2017-05-25T02:09:02.868Z,0
2017-05-25T02:09:43.270Z,0
2017-05-25T02:10:23.711Z,0
2017-05-25T02:11:04.110Z,0
2017-05-25T02:11:44.557Z,0
2017-05-25T02:12:24.994Z,0
2017-05-25T02:13:05.397Z,0
2017-05-25T02:13:45.784Z,0
2017-05-25T02:14:26.175Z,0
2017-05-25T02:15:06.596Z,0
2017-05-25T02:15:47.018Z,0
2017-05-25T02:16:27.436Z,0
2017-05-25T02:17:07.846Z,0
2017-05-25T02:17:48.281Z,0
2017-05-25T02:18:28.722Z,0
2017-05-25T02:19:09.107Z,0
2017-05-25T02:19:53.222Z,0
2017-05-25T02:20:34.558Z,0
2017-05-25T02:21:14.971Z,0
2017-05-25T02:21:55.399Z,0
2017-05-25T02:22:35.801Z,0
2017-05-25T02:23:16.272Z,0
2017-05-25T02:23:56.683Z,0
2017-05-25T02:24:37.097Z,0
2017-05-25T02:25:17.555Z,0
2017-05-25T02:25:57.997Z,0
2017-05-25T02:26:38.396Z,0
2017-05-25T02:27:18.814Z,0
2017-05-25T02:27:59.213Z,0
2017-05-25T02:28:39.594Z,0
2017-05-25T02:29:20.000Z,0
2017-05-25T02:30:00.436Z,0
2017-05-25T02:30:40.862Z,0
2017-05-25T02:31:21.233Z,0
2017-05-25T02:32:01.665Z,0
2017-05-25T02:32:42.111Z,0
2017-05-25T02:33:22.533Z,0
2017-05-25T02:34:02.950Z,0
2017-05-25T02:34:43.379Z,0
2017-05-25T02:35:23.771Z,0
2017-05-25T02:36:04.198Z,0
2017-05-25T02:36:44.666Z,0
2017-05-25T02:37:25.979Z,0
2017-05-25T02:38:06.379Z,0
2017-05-25T02:38:46.786Z,0
2017-05-25T02:39:27.260Z,0
2017-05-25T02:40:08.226Z,0
2017-05-25T02:40:48.665Z,0
2017-05-25T02:41:29.072Z,0
2017-05-25T02:42:09.501Z,0
2017-05-25T02:42:49.911Z,0
2017-05-25T02:43:30.300Z,0
2017-05-25T02:44:10.725Z,0
2017-05-25T02:44:51.128Z,0
2017-05-25T02:45:31.591Z,0
2017-05-25T02:48:04.780Z,0
2017-05-25T02:48:45.218Z,0
2017-05-25T02:51:13.361Z,0
2017-05-25T02:51:53.795Z,0
2017-05-25T02:52:34.232Z,0
2017-05-25T02:53:14.669Z,0
2017-05-25T02:53:55.084Z,0
2017-05-25T02:54:35.538Z,0
2017-05-25T02:55:15.925Z,0
2017-05-25T02:55:56.343Z,0
2017-05-25T02:56:36.774Z,0
2017-05-25T02:57:17.176Z,0
2017-05-25T02:57:57.569Z,0
2017-05-25T02:58:38.005Z,0
2017-05-25T02:59:18.427Z,0
2017-05-25T02:59:58.858Z,0
2017-05-25T03:00:39.277Z,0
2017-05-25T03:01:19.705Z,0
2017-05-25T03:02:00.078Z,0
2017-05-25T03:02:40.527Z,0
2017-05-25T03:03:20.907Z,0
2017-05-25T03:05:59.643Z,0
2017-05-25T03:06:40.099Z,0
2017-05-25T03:07:20.523Z,0
2017-05-25T03:08:00.913Z,0
2017-05-25T03:08:41.337Z,0
2017-05-25T03:09:21.773Z,0
2017-05-25T03:10:02.175Z,0
2017-05-25T03:10:42.565Z,0
2017-05-25T03:11:23.031Z,0
2017-05-25T03:13:51.840Z,0
2017-05-25T03:16:25.099Z,0
2017-05-25T03:17:05.525Z,0
2017-05-25T03:17:45.939Z,0
2017-05-25T03:20:24.192Z,5
2017-05-25T03:21:05.306Z,5
2017-05-25T03:21:45.111Z,5
2017-05-25T03:22:25.601Z,5
2017-05-25T03:23:05.998Z,5
2017-05-25T03:25:44.214Z,5
2017-05-25T03:26:24.667Z,5
2017-05-25T03:27:05.162Z,10
2017-05-25T03:27:45.592Z,10
2017-05-25T03:28:26.000Z,10
2017-05-25T03:29:06.381Z,10
2017-05-25T03:29:46.786Z,10
2017-05-25T03:30:27.156Z,10
2017-05-25T03:31:07.604Z,10
2017-05-25T03:31:48.040Z,10
2017-05-25T03:32:28.451Z,15
2017-05-25T03:33:08.884Z,15
2017-05-25T03:33:49.377Z,15
2017-05-25T03:34:29.741Z,15
2017-05-25T03:35:10.287Z,15
2017-05-25T03:37:23.095Z,15
2017-05-25T03:38:03.530Z,20
2017-05-25T03:38:43.934Z,20
2017-05-25T03:39:24.395Z,20
2017-05-25T03:42:02.625Z,25
2017-05-25T03:42:43.041Z,25
2017-05-25T03:43:23.443Z,25
2017-05-25T03:44:03.830Z,25
2017-05-25T03:44:44.261Z,25
2017-05-25T03:45:24.729Z,25
2017-05-25T03:46:05.112Z,30
2017-05-25T03:46:45.521Z,30
2017-05-25T03:47:25.963Z,30
2017-05-25T03:48:06.375Z,30
2017-05-25T03:48:46.829Z,30
2017-05-25T03:49:27.266Z,35
2017-05-25T03:50:07.668Z,35
2017-05-25T03:50:48.178Z,35
2017-05-25T03:51:28.576Z,35
2017-05-25T03:52:08.978Z,40
2017-05-25T03:52:49.414Z,40
2017-05-25T03:53:29.830Z,40
2017-05-25T03:54:11.126Z,40
2017-05-25T03:56:24.156Z,45
2017-05-25T03:57:04.644Z,45
2017-05-25T03:57:45.234Z,45
2017-05-25T03:58:25.700Z,45
2017-05-25T03:59:06.054Z,45
2017-05-25T03:59:46.500Z,50
2017-05-25T04:00:26.944Z,50
2017-05-25T04:01:07.445Z,50
2017-05-25T04:01:47.850Z,55
2017-05-25T04:02:28.276Z,55
2017-05-25T04:03:08.667Z,60
2017-05-25T04:03:49.082Z,65
2017-05-25T04:04:29.494Z,65
2017-05-25T04:05:09.880Z,70
2017-05-25T04:05:50.390Z,70
2017-05-25T04:06:30.772Z,70
2017-05-25T04:07:11.195Z,70
2017-05-25T04:07:51.581Z,70
2017-05-25T04:08:32.012Z,70
2017-05-25T04:09:12.477Z,70
2017-05-25T04:11:50.771Z,75
2017-05-25T04:12:31.207Z,80
2017-05-25T04:13:11.638Z,85
2017-05-25T04:13:52.077Z,85
2017-05-25T04:16:10.137Z,100
2017-05-25T04:16:50.556Z,105
2017-05-25T04:17:31.154Z,110
2017-05-25T04:18:11.569Z,105
2017-05-25T04:18:52.968Z,110
2017-05-25T04:19:33.420Z,115
2017-05-25T04:20:13.815Z,120
2017-05-25T04:20:54.236Z,120
2017-05-25T04:21:34.722Z,120
2017-05-25T04:22:15.650Z,120
2017-05-25T04:24:49.006Z,120
2017-05-25T04:25:29.453Z,120
2017-05-25T04:26:09.836Z,125
2017-05-25T04:26:51.339Z,125
2017-05-25T04:27:31.757Z,130
2017-05-25T04:28:12.121Z,135
2017-05-25T04:28:52.553Z,140
2017-05-25T04:29:32.983Z,140
2017-05-25T04:31:51.325Z,150
2017-05-25T04:32:31.741Z,150
2017-05-25T04:33:12.179Z,150
2017-05-25T04:33:52.598Z,155
2017-05-25T04:34:33.837Z,160
2017-05-25T04:35:14.255Z,165
2017-05-25T04:35:55.447Z,170
2017-05-25T04:36:35.817Z,180
2017-05-25T04:37:16.255Z,190
2017-05-25T04:37:56.634Z,195
2017-05-25T04:38:37.058Z,200
2017-05-25T04:39:17.454Z,200
2017-05-25T04:39:57.862Z,205
2017-05-25T04:40:39.914Z,205
2017-05-25T04:41:20.830Z,210
2017-05-25T04:42:01.250Z,215
2017-05-25T04:42:41.771Z,215
2017-05-25T04:43:22.984Z,220
2017-05-25T04:44:04.178Z,215
2017-05-25T04:44:44.664Z,210
2017-05-25T04:45:25.087Z,210
2017-05-25T04:46:05.540Z,205
2017-05-25T04:46:45.946Z,200
2017-05-25T04:47:26.461Z,200
2017-05-25T04:48:09.190Z,195
2017-05-25T04:48:50.414Z,195
2017-05-25T04:49:31.582Z,190
2017-05-25T04:51:45.347Z,195
2017-05-25T04:52:25.758Z,205
2017-05-25T04:53:06.156Z,215
2017-05-25T04:57:27.004Z,245
2017-05-25T05:00:00.344Z,250
2017-05-25T05:00:40.822Z,245
2017-05-25T05:02:53.663Z,235
2017-05-25T05:03:34.096Z,235
2017-05-25T05:04:14.522Z,235
2017-05-25T05:04:54.935Z,240
2017-05-25T05:05:35.340Z,240
2017-05-25T05:07:48.858Z,245
2017-05-25T05:08:29.352Z,250
2017-05-25T05:09:09.783Z,250
2017-05-25T05:09:50.263Z,255
2017-05-25T05:10:30.718Z,255
2017-05-25T05:11:11.094Z,260
2017-05-25T05:13:24.978Z,270
2017-05-25T05:14:05.377Z,270
2017-05-25T05:14:45.861Z,270
2017-05-25T05:15:26.894Z,270
2017-05-25T05:16:07.327Z,275
2017-05-25T05:16:47.714Z,275
2017-05-25T05:17:28.155Z,280
2017-05-25T05:18:08.541Z,280
2017-05-25T05:18:49.121Z,280
2017-05-25T05:19:29.531Z,285
2017-05-25T05:20:09.950Z,295
2017-05-25T05:20:50.362Z,295
2017-05-25T05:21:30.844Z,295
2017-05-25T05:22:11.357Z,305
2017-05-25T05:22:51.749Z,310
2017-05-25T05:23:32.400Z,315
2017-05-25T05:24:12.836Z,315
2017-05-25T05:24:53.301Z,320
2017-05-25T05:25:33.663Z,320
2017-05-25T05:26:14.081Z,325
2017-05-25T05:26:54.444Z,315
2017-05-25T05:27:34.904Z,315
2017-05-25T05:28:15.285Z,315
2017-05-25T05:28:55.675Z,315
2017-05-25T05:29:36.131Z,315
2017-05-25T05:30:16.573Z,315
2017-05-25T05:30:57.048Z,320
2017-05-25T05:31:37.411Z,325
2017-05-25T05:32:17.843Z,330
2017-05-25T05:32:58.274Z,340
2017-05-25T05:33:38.676Z,345
2017-05-25T05:34:19.082Z,345
2017-05-25T05:34:59.522Z,350
2017-05-25T05:35:40.723Z,355
2017-05-25T05:36:21.142Z,360
2017-05-25T05:37:01.595Z,365
2017-05-25T05:37:41.974Z,370
2017-05-25T05:38:22.443Z,370
2017-05-25T05:39:02.902Z,375
2017-05-25T05:39:43.376Z,375
2017-05-25T05:40:24.072Z,380
2017-05-25T05:41:04.435Z,380
2017-05-25T05:41:44.966Z,380
2017-05-25T05:42:25.374Z,385
2017-05-25T05:43:07.514Z,390
2017-05-25T05:43:49.810Z,390
2017-05-25T05:44:31.240Z,395
2017-05-25T05:45:12.256Z,400
2017-05-25T05:45:54.476Z,400
2017-05-25T05:46:35.382Z,405
2017-05-25T05:47:15.774Z,405
2017-05-25T05:47:56.165Z,410
2017-05-25T05:48:37.565Z,415
2017-05-25T05:49:17.981Z,415
2017-05-25T05:50:00.847Z,415
2017-05-25T05:50:41.279Z,415
2017-05-25T05:51:22.511Z,420
2017-05-25T05:52:02.963Z,420
2017-05-25T05:52:43.353Z,425
2017-05-25T05:53:23.775Z,425
2017-05-25T05:54:04.210Z,435
2017-05-25T05:54:46.651Z,440
2017-05-25T05:55:27.092Z,445
2017-05-25T05:56:07.660Z,450
2017-05-25T05:56:48.115Z,455
2017-05-25T05:57:28.545Z,460
2017-05-25T05:58:09.824Z,460
2017-05-25T05:58:50.229Z,465
2017-05-25T05:59:30.653Z,470
2017-05-25T06:00:11.003Z,470
2017-05-25T06:00:51.439Z,470
2017-05-25T06:01:31.888Z,475
2017-05-25T06:02:12.278Z,480
2017-05-25T06:04:30.526Z,495
2017-05-25T06:05:10.938Z,505
2017-05-25T06:05:51.355Z,510
2017-05-25T06:06:31.796Z,510
2017-05-25T06:07:12.172Z,510
2017-05-25T06:07:52.578Z,515
2017-05-25T06:08:32.990Z,515
2017-05-25T06:09:13.415Z,515
2017-05-25T06:09:53.826Z,515
2017-05-25T06:10:34.256Z,525
2017-05-25T06:11:14.690Z,530
2017-05-25T06:11:55.134Z,535
2017-05-25T06:12:35.523Z,535
2017-05-25T06:13:15.926Z,540
2017-05-25T06:13:56.345Z,545
2017-05-25T06:14:36.788Z,550
2017-05-25T06:15:17.257Z,555
2017-05-25T06:15:57.975Z,565
2017-05-25T06:16:38.409Z,565
2017-05-25T06:17:18.843Z,575
2017-05-25T06:17:59.310Z,580
2017-05-25T06:18:39.692Z,600
2017-05-25T06:19:20.135Z,605
2017-05-25T06:20:00.593Z,600
2017-05-25T06:20:40.986Z,630
2017-05-25T06:21:21.445Z,630
2017-05-25T06:22:01.825Z,620
2017-05-25T06:22:42.782Z,610
2017-05-25T06:23:22.714Z,600
2017-05-25T06:24:03.143Z,605
2017-05-25T06:24:43.600Z,625
2017-05-25T06:25:23.983Z,645
2017-05-25T06:26:04.409Z,710
2017-05-25T06:26:44.829Z,715
2017-05-25T06:27:25.265Z,650
2017-05-25T06:28:05.675Z,605
2017-05-25T06:28:46.122Z,680
2017-05-25T06:29:26.562Z,730
2017-05-25T06:31:44.499Z,690
2017-05-25T06:32:24.918Z,720
2017-05-25T06:33:05.361Z,695
2017-05-25T06:33:45.731Z,690
2017-05-25T06:34:26.203Z,685
2017-05-25T06:35:06.609Z,665
2017-05-25T06:35:47.021Z,660
2017-05-25T06:36:27.417Z,670
2017-05-25T06:38:40.504Z,655
2017-05-25T06:39:20.937Z,645
2017-05-25T06:40:01.382Z,650
2017-05-25T06:40:41.807Z,675
2017-05-25T06:41:22.225Z,660
2017-05-25T06:42:02.673Z,700
2017-05-25T06:42:43.064Z,700
2017-05-25T06:43:23.508Z,705
2017-05-25T06:44:03.972Z,735
2017-05-25T06:44:44.411Z,740
2017-05-25T06:45:24.804Z,755
2017-05-25T06:46:05.230Z,795
2017-05-25T06:46:45.611Z,830
2017-05-25T06:47:26.074Z,840
2017-05-25T06:48:06.415Z,865
2017-05-25T06:48:46.857Z,955
2017-05-25T06:49:27.279Z,1005
2017-05-25T06:50:07.692Z,1015
2017-05-25T06:50:48.282Z,1005
2017-05-25T06:53:01.233Z,985
2017-05-25T06:53:41.684Z,990
2017-05-25T06:54:22.125Z,930
2017-05-25T06:55:02.564Z,795
2017-05-25T06:55:42.960Z,760
2017-05-25T06:56:23.398Z,765
2017-05-25T06:57:03.804Z,720
2017-05-25T06:57:44.219Z,640
2017-05-25T06:58:24.648Z,570
2017-05-25T06:59:05.120Z,585
2017-05-25T06:59:45.558Z,590
2017-05-25T07:00:26.008Z,585
2017-05-25T07:01:06.451Z,540
2017-05-25T07:01:46.833Z,560
2017-05-25T07:02:27.278Z,670
2017-05-25T07:03:07.687Z,680
2017-05-25T07:03:48.087Z,640
2017-05-25T07:04:28.645Z,675
2017-05-25T07:05:09.270Z,725
2017-05-25T07:05:49.808Z,630
2017-05-25T07:06:30.344Z,620
2017-05-25T07:08:58.694Z,630
2017-05-25T07:09:39.198Z,675
2017-05-25T07:10:19.618Z,695
2017-05-25T07:11:00.083Z,705
2017-05-25T07:13:38.918Z,670
2017-05-25T07:14:19.499Z,645
2017-05-25T07:14:59.935Z,640
2017-05-25T07:15:40.386Z,690
2017-05-25T07:16:20.823Z,680
2017-05-25T07:17:01.306Z,685
2017-05-25T07:17:41.702Z,645
2017-05-25T07:18:22.181Z,630
2017-05-25T07:19:02.579Z,685
2017-05-25T07:19:43.017Z,775
2017-05-25T07:20:23.452Z,690
2017-05-25T07:21:03.873Z,675
2017-05-25T07:23:16.808Z,790
2017-05-25T07:23:57.285Z,860
2017-05-25T07:24:37.664Z,820
2017-05-25T07:25:18.093Z,805
2017-05-25T07:25:58.566Z,790
2017-05-25T07:28:11.392Z,830
2017-05-25T07:30:24.104Z,840
2017-05-25T07:31:04.548Z,830
2017-05-25T07:31:44.957Z,860
2017-05-25T07:32:25.428Z,835
2017-05-25T07:33:06.005Z,860
2017-05-25T07:33:46.452Z,1015
2017-05-25T07:34:26.911Z,1295
2017-05-25T07:36:55.422Z,1475
2017-05-25T07:37:35.716Z,1400
2017-05-25T07:38:15.998Z,1225
2017-05-25T07:38:56.446Z,1475
2017-05-25T07:39:36.863Z,1510
2017-05-25T07:40:18.231Z,1240
2017-05-25T07:40:58.639Z,1060
2017-05-25T07:41:39.178Z,940
2017-05-25T07:42:19.560Z,875
2017-05-25T07:43:00.601Z,860
2017-05-25T07:43:40.993Z,865
2017-05-25T07:44:21.440Z,905
2017-05-25T07:46:39.465Z,1135
2017-05-25T07:47:21.382Z,1420
2017-05-25T07:48:01.410Z,1750
2017-05-25T07:48:42.738Z,1590
2017-05-25T07:49:24.852Z,1715
2017-05-25T07:51:53.745Z,1280
2017-05-25T07:54:22.749Z,1130
2017-05-25T07:55:03.445Z,1130
2017-05-25T07:55:43.638Z,1285
2017-05-25T07:56:24.484Z,1390
2017-05-25T07:57:04.910Z,1945
2017-05-25T07:57:45.369Z,1435
2017-05-25T08:00:03.417Z,1550
2017-05-25T08:00:43.865Z,2215
2017-05-25T08:01:24.547Z,1950
2017-05-25T08:02:05.817Z,2100
2017-05-25T08:02:46.244Z,1835
2017-05-25T08:05:14.383Z,1335
2017-05-25T08:05:54.821Z,1285
2017-05-25T08:06:36.918Z,2150
2017-05-25T08:07:17.226Z,2880
2017-05-25T08:07:57.692Z,2985
2017-05-25T08:08:38.363Z,2815
2017-05-25T08:09:19.547Z,2690
2017-05-25T08:10:00.080Z,3055
2017-05-25T08:10:41.151Z,3160
2017-05-25T08:11:21.918Z,3215
2017-05-25T08:12:02.152Z,3195
2017-05-25T08:12:42.661Z,3250
2017-05-25T08:13:23.076Z,3335
2017-05-25T08:14:03.610Z,3410
2017-05-25T08:14:45.164Z,3340
2017-05-25T08:15:25.645Z,3360
2017-05-25T08:16:06.598Z,3450
2017-05-25T08:16:47.219Z,3400
2017-05-25T08:17:27.755Z,3385
2017-05-25T08:18:08.211Z,3400
2017-05-25T08:18:50.777Z,3440
2017-05-25T08:19:31.146Z,3455
2017-05-25T08:20:11.563Z,3480
2017-05-25T08:20:51.984Z,3455
2017-05-25T08:21:33.401Z,3310
2017-05-25T08:22:13.950Z,3505
2017-05-25T08:22:54.377Z,3550
2017-05-25T08:25:27.766Z,3360
2017-05-25T08:26:08.215Z,3240
2017-05-25T08:26:48.676Z,3335
2017-05-25T08:27:29.126Z,3460
2017-05-25T08:28:09.548Z,3410
2017-05-25T08:28:50.065Z,2970
2017-05-25T08:29:30.492Z,2425
2017-05-25T08:30:10.900Z,3010
2017-05-25T08:30:51.948Z,1840
2017-05-25T08:31:32.613Z,1815
2017-05-25T08:32:14.429Z,2615
2017-05-25T08:34:52.784Z,1960
2017-05-25T08:35:33.298Z,3490
2017-05-25T08:36:13.648Z,3415
2017-05-25T08:36:54.072Z,3625
2017-05-25T08:37:34.499Z,3440
2017-05-25T08:38:15.740Z,3535
2017-05-25T08:38:57.701Z,3610
2017-05-25T08:39:38.133Z,3605
2017-05-25T08:40:19.486Z,3570
2017-05-25T08:41:00.160Z,3610
2017-05-25T08:41:40.586Z,3950
2017-05-25T08:42:21.678Z,3920
2017-05-25T08:43:03.038Z,3950
2017-05-25T08:43:43.444Z,3980
2017-05-25T08:44:23.869Z,3870
2017-05-25T08:45:06.262Z,3935
2017-05-25T08:45:46.726Z,3875
2017-05-25T08:46:27.205Z,4035
2017-05-25T08:47:07.635Z,4190
2017-05-25T08:47:50.991Z,4040
2017-05-25T08:48:31.478Z,3945
2017-05-25T08:49:11.887Z,4105
2017-05-25T08:49:52.566Z,4510
2017-05-25T08:52:11.928Z,4200
2017-05-25T08:52:52.587Z,4365
2017-05-25T08:53:33.396Z,4450
2017-05-25T08:54:14.444Z,4385
2017-05-25T08:54:55.782Z,4360
2017-05-25T08:55:36.234Z,4320
2017-05-25T08:56:19.278Z,4285
2017-05-25T08:57:00.489Z,4155
2017-05-25T08:57:40.911Z,4155
2017-05-25T08:58:22.190Z,4180
2017-05-25T08:59:03.383Z,4115
2017-05-25T08:59:43.823Z,4060
2017-05-25T09:00:25.657Z,4145
2017-05-25T09:01:06.825Z,4240
2017-05-25T09:01:47.243Z,4360
2017-05-25T09:02:27.710Z,4360
2017-05-25T09:03:08.149Z,4415
2017-05-25T09:05:24.222Z,4455
2017-05-25T09:06:04.685Z,4570
2017-05-25T09:06:45.113Z,4535
2017-05-25T09:07:26.109Z,4390
2017-05-25T09:08:06.576Z,4460
2017-05-25T09:08:47.665Z,4305
2017-05-25T09:09:28.352Z,4155
2017-05-25T09:10:09.216Z,4260
2017-05-25T09:12:43.220Z,4370
2017-05-25T09:13:24.383Z,4540
2017-05-25T09:14:05.144Z,4615
2017-05-25T09:14:46.249Z,4470
2017-05-25T09:15:26.651Z,4485
2017-05-25T09:16:07.126Z,4620
2017-05-25T09:16:49.170Z,4640
2017-05-25T09:17:29.585Z,4435
2017-05-25T09:18:10.024Z,4320
2017-05-25T09:18:51.108Z,4390
2017-05-25T09:19:32.277Z,4505
2017-05-25T09:20:12.710Z,4435
2017-05-25T09:20:53.123Z,4190
2017-05-25T09:21:33.567Z,4260
2017-05-25T09:22:14.004Z,4505
2017-05-25T09:22:54.487Z,4620
2017-05-25T09:23:34.989Z,4755
2017-05-25T09:24:16.251Z,4690
2017-05-25T09:24:57.028Z,4620
2017-05-25T09:27:15.975Z,4520
2017-05-25T09:27:56.877Z,4315
2017-05-25T09:28:37.350Z,4400
2017-05-25T09:29:17.821Z,4440
2017-05-25T09:29:58.235Z,4315
2017-05-25T09:30:38.699Z,4255
2017-05-25T09:31:19.495Z,4525
2017-05-25T09:31:59.974Z,4815
2017-05-25T09:34:28.771Z,4425
2017-05-25T09:35:09.232Z,4845
2017-05-25T09:35:49.703Z,4875
2017-05-25T09:36:30.164Z,4925
2017-05-25T09:37:10.607Z,5020
2017-05-25T09:37:51.069Z,5110
2017-05-25T09:38:31.535Z,4675
2017-05-25T09:39:12.277Z,4775
2017-05-25T09:39:52.526Z,4745
2017-05-25T09:40:32.954Z,4845
2017-05-25T09:41:13.404Z,4820
2017-05-25T09:41:53.860Z,4805
2017-05-25T09:42:34.321Z,4700
2017-05-25T09:43:14.760Z,5115
2017-05-25T09:43:55.188Z,5010
2017-05-25T09:44:35.600Z,1635
2017-05-25T09:45:16.091Z,3940
2017-05-25T09:45:56.696Z,1350
2017-05-25T09:46:37.149Z,2845
2017-05-25T09:47:19.167Z,2695
2017-05-25T09:47:59.588Z,3545
2017-05-25T09:48:40.184Z,5115
2017-05-25T09:49:20.563Z,5160
2017-05-25T09:50:01.011Z,5075
2017-05-25T09:50:41.416Z,5080
2017-05-25T09:51:21.850Z,5260
2017-05-25T09:52:02.265Z,5475
2017-05-25T09:52:42.777Z,5465
2017-05-25T09:53:23.145Z,5245
2017-05-25T09:54:03.616Z,4600
2017-05-25T09:54:44.223Z,5185
2017-05-25T09:55:24.718Z,5080
2017-05-25T09:57:52.765Z,5035
2017-05-25T09:58:33.181Z,3660
2017-05-25T09:59:13.610Z,4165
2017-05-25T09:59:54.027Z,1490
2017-05-25T10:00:34.425Z,5440
2017-05-25T10:01:14.849Z,5305
2017-05-25T10:01:55.260Z,4945
2017-05-25T10:02:35.735Z,5135
2017-05-25T10:03:16.210Z,1835
2017-05-25T10:03:56.671Z,2465
2017-05-25T10:04:37.076Z,4560
2017-05-25T10:05:17.487Z,2305
2017-05-25T10:05:57.938Z,5105
2017-05-25T10:06:38.383Z,2865
2017-05-25T10:07:18.755Z,2480
2017-05-25T10:07:59.285Z,4625
2017-05-25T10:08:45.161Z,4470
2017-05-25T10:11:16.708Z,1515
2017-05-25T10:11:58.652Z,4870
2017-05-25T10:12:39.749Z,4905
2017-05-25T10:13:19.876Z,5415
2017-05-25T10:14:00.321Z,5640
2017-05-25T10:14:40.814Z,5570
2017-05-25T10:15:21.238Z,5450
2017-05-25T10:16:01.749Z,5450
2017-05-25T10:16:42.167Z,5385
2017-05-25T10:17:22.588Z,5140
2017-05-25T10:19:55.997Z,5225
2017-05-25T10:20:36.434Z,5170
2017-05-25T10:21:16.875Z,4905
2017-05-25T10:21:57.304Z,4925
2017-05-25T10:22:37.745Z,4990
2017-05-25T10:25:11.048Z,1020
2017-05-25T10:25:51.456Z,1030
2017-05-25T10:26:31.903Z,5120
2017-05-25T10:27:12.355Z,5135
2017-05-25T10:27:53.756Z,5125
2017-05-25T10:28:34.182Z,4920
2017-05-25T10:29:14.707Z,5265
2017-05-25T10:29:55.173Z,5410
2017-05-25T10:30:35.562Z,5375
2017-05-25T10:31:16.208Z,5470
2017-05-25T10:31:56.445Z,5555
2017-05-25T10:32:36.862Z,5655
2017-05-25T10:33:17.315Z,5480
2017-05-25T10:33:57.741Z,5410
2017-05-25T10:34:38.162Z,5690
2017-05-25T10:35:18.736Z,5685
2017-05-25T10:35:59.014Z,5740
2017-05-25T10:36:39.463Z,5640
2017-05-25T10:37:19.898Z,5215
2017-05-25T10:38:00.325Z,1950
2017-05-25T10:38:40.720Z,1135
2017-05-25T10:40:54.250Z,1230
2017-05-25T10:41:34.704Z,1205
2017-05-25T10:42:15.158Z,1240
2017-05-25T10:42:55.568Z,4720
2017-05-25T10:43:36.028Z,4680
2017-05-25T10:44:16.467Z,4545
2017-05-25T10:44:56.891Z,3150
2017-05-25T10:45:37.331Z,1575
2017-05-25T10:46:17.772Z,1300
2017-05-25T10:46:58.233Z,1300
2017-05-25T10:47:38.690Z,1690
2017-05-25T10:48:19.079Z,5400
2017-05-25T10:48:59.509Z,5170
2017-05-25T10:49:39.942Z,5280
2017-05-25T10:50:20.348Z,3290
2017-05-25T10:51:00.781Z,5705
2017-05-25T10:51:41.301Z,5435
2017-05-25T10:52:21.781Z,5675
2017-05-25T10:53:02.161Z,5485
2017-05-25T10:53:42.585Z,5510
2017-05-25T10:54:22.991Z,5485
2017-05-25T10:55:03.408Z,5625
2017-05-25T10:55:43.835Z,5605
2017-05-25T10:56:26.952Z,5625
2017-05-25T10:57:07.386Z,5665
2017-05-25T10:57:47.836Z,5845
2017-05-25T10:58:31.016Z,5870
2017-05-25T10:59:11.456Z,5740
2017-05-25T10:59:51.903Z,5495
2017-05-25T11:00:32.336Z,5470
2017-05-25T11:03:00.622Z,5325
2017-05-25T11:03:41.080Z,5440
2017-05-25T11:04:21.536Z,5420
2017-05-25T11:05:01.963Z,5375
2017-05-25T11:05:42.407Z,5440
2017-05-25T11:06:22.972Z,5630
2017-05-25T11:07:03.285Z,5810
2017-05-25T11:09:21.884Z,5565
2017-05-25T11:10:02.352Z,5675
2017-05-25T11:10:42.800Z,5095
2017-05-25T11:11:23.270Z,3485
2017-05-25T11:12:03.669Z,2380